JIA5374 KCLT-KMYR
Flight info
| Callsign | JIA5374 |
|---|---|
| Flight time | 0h 31m |
| Altitude | 20000 |
| Route | KWEEN5 UNJAM |
| Aircraft | CRJ9/M-SDFGIRWY/S |
Departure
| Time | 2026-04-15 22:07 |
|---|---|
| Airport | Charlotte Douglas International Airport (KCLT) |
Arrival
| Time | 2026-04-15 22:38 |
|---|---|
| Airport | Myrtle Beach International Airport (KMYR) |
| Time | Latitude | Longitude | Altitude | Speed | Heading |
|---|---|---|---|---|---|
| 2026-04-15 21:31 | 35.22363 | -80.93868 | 731 ft | 0 kts | 266° |
| 2026-04-15 21:55 | 35.22364 | -80.93854 | 731 ft | 4 kts | 274° |
| 2026-04-15 21:55 | 35.22355 | -80.93830 | 731 ft | 4 kts | 328° |
| 2026-04-15 21:55 | 35.22332 | -80.93825 | 731 ft | 4 kts | 356° |
| 2026-04-15 21:56 | 35.22322 | -80.93824 | 731 ft | 0 kts | 356° |
| 2026-04-15 22:03 | 35.22323 | -80.93824 | 731 ft | 0 kts | 356° |
| 2026-04-15 22:03 | 35.22334 | -80.93825 | 731 ft | 3 kts | 356° |
| 2026-04-15 22:03 | 35.22367 | -80.93828 | 731 ft | 6 kts | 356° |
| 2026-04-15 22:03 | 35.22420 | -80.93833 | 731 ft | 9 kts | 356° |
| 2026-04-15 22:04 | 35.22486 | -80.93826 | 731 ft | 8 kts | 39° |
| 2026-04-15 22:04 | 35.22500 | -80.93778 | 731 ft | 6 kts | 85° |
| 2026-04-15 22:04 | 35.22502 | -80.93738 | 732 ft | 4 kts | 85° |
| 2026-04-15 22:04 | 35.22504 | -80.93714 | 732 ft | 2 kts | 85° |
| 2026-04-15 22:05 | 35.22505 | -80.93703 | 733 ft | 1 kts | 85° |
| 2026-04-15 22:05 | 35.22505 | -80.93695 | 733 ft | 2 kts | 85° |
| 2026-04-15 22:05 | 35.22507 | -80.93670 | 733 ft | 4 kts | 85° |
| 2026-04-15 22:05 | 35.22504 | -80.93642 | 734 ft | 6 kts | 122° |
| 2026-04-15 22:06 | 35.22466 | -80.93620 | 734 ft | 8 kts | 170° |
| 2026-04-15 22:06 | 35.22377 | -80.93610 | 734 ft | 30 kts | 175° |
| 2026-04-15 22:06 | 35.21897 | -80.93569 | 735 ft | 108 kts | 175° |
| 2026-04-15 22:06 | 35.20924 | -80.93484 | 755 ft | 167 kts | 179° |
| 2026-04-15 22:07 | 35.19748 | -80.93362 | 1626 ft | 164 kts | 178° |
| 2026-04-15 22:07 | 35.18600 | -80.93242 | 2596 ft | 167 kts | 179° |
| 2026-04-15 22:07 | 35.17443 | -80.93163 | 3526 ft | 167 kts | 180° |
| 2026-04-15 22:07 | 35.16301 | -80.93061 | 4439 ft | 163 kts | 175° |
| 2026-04-15 22:08 | 35.15171 | -80.92880 | 5154 ft | 171 kts | 176° |
| 2026-04-15 22:08 | 35.13903 | -80.92643 | 5645 ft | 197 kts | 174° |
| 2026-04-15 22:08 | 35.12468 | -80.92374 | 6223 ft | 220 kts | 174° |
| 2026-04-15 22:08 | 35.10888 | -80.92076 | 6882 ft | 239 kts | 175° |
| 2026-04-15 22:09 | 35.09189 | -80.91757 | 7600 ft | 255 kts | 174° |
| 2026-04-15 22:09 | 35.07389 | -80.91416 | 8353 ft | 269 kts | 174° |
| 2026-04-15 22:09 | 35.05490 | -80.91052 | 9103 ft | 283 kts | 173° |
| 2026-04-15 22:09 | 35.03515 | -80.90661 | 9977 ft | 291 kts | 174° |
| 2026-04-15 22:10 | 35.01484 | -80.90242 | 10685 ft | 304 kts | 172° |
| 2026-04-15 22:10 | 34.99661 | -80.89864 | 11074 ft | 320 kts | 173° |
| 2026-04-15 22:10 | 34.97412 | -80.89397 | 11546 ft | 336 kts | 173° |
| 2026-04-15 22:10 | 34.95067 | -80.88925 | 12164 ft | 346 kts | 173° |
| 2026-04-15 22:11 | 34.92673 | -80.88453 | 12894 ft | 352 kts | 173° |
| 2026-04-15 22:11 | 34.90240 | -80.87971 | 13629 ft | 357 kts | 173° |
| 2026-04-15 22:11 | 34.87764 | -80.87486 | 14301 ft | 363 kts | 174° |
| 2026-04-15 22:11 | 34.85261 | -80.86993 | 15004 ft | 367 kts | 173° |
| 2026-04-15 22:12 | 34.82732 | -80.86490 | 15693 ft | 370 kts | 173° |
| 2026-04-15 22:12 | 34.80177 | -80.85993 | 16377 ft | 373 kts | 175° |
| 2026-04-15 22:12 | 34.77588 | -80.85619 | 17040 ft | 376 kts | 177° |
| 2026-04-15 22:12 | 34.74970 | -80.85331 | 17702 ft | 380 kts | 178° |
| 2026-04-15 22:13 | 34.72324 | -80.85047 | 18329 ft | 384 kts | 178° |
| 2026-04-15 22:13 | 34.69655 | -80.84753 | 18901 ft | 387 kts | 178° |
| 2026-04-15 22:13 | 34.66959 | -80.84455 | 19414 ft | 391 kts | 178° |
| 2026-04-15 22:13 | 34.64225 | -80.84156 | 19779 ft | 400 kts | 178° |
| 2026-04-15 22:14 | 34.61409 | -80.83881 | 19967 ft | 413 kts | 178° |
| 2026-04-15 22:14 | 34.58485 | -80.83608 | 20061 ft | 429 kts | 178° |
| 2026-04-15 22:14 | 34.55458 | -80.83333 | 20107 ft | 442 kts | 178° |
| 2026-04-15 22:14 | 34.52382 | -80.83051 | 20122 ft | 445 kts | 178° |
| 2026-04-15 22:15 | 34.49299 | -80.82772 | 20117 ft | 443 kts | 178° |
| 2026-04-15 22:15 | 34.46227 | -80.82489 | 20115 ft | 442 kts | 178° |
| 2026-04-15 22:15 | 34.43231 | -80.81937 | 20113 ft | 441 kts | 170° |
| 2026-04-15 22:15 | 34.40267 | -80.81040 | 20107 ft | 437 kts | 167° |
| 2026-04-15 22:16 | 34.37299 | -80.80558 | 20098 ft | 428 kts | 181° |
| 2026-04-15 22:16 | 34.34361 | -80.80092 | 20090 ft | 428 kts | 164° |
| 2026-04-15 22:16 | 34.31634 | -80.78675 | 20094 ft | 427 kts | 149° |
| 2026-04-15 22:16 | 34.29441 | -80.76288 | 20099 ft | 427 kts | 127° |
| 2026-04-15 22:17 | 34.28084 | -80.73127 | 20114 ft | 424 kts | 110° |
| 2026-04-15 22:17 | 34.27123 | -80.69769 | 20112 ft | 423 kts | 108° |
| 2026-04-15 22:17 | 34.26235 | -80.66364 | 20114 ft | 426 kts | 107° |
| 2026-04-15 22:17 | 34.25378 | -80.62919 | 20107 ft | 430 kts | 106° |
| 2026-04-15 22:18 | 34.24543 | -80.59436 | 20131 ft | 433 kts | 105° |
| 2026-04-15 22:18 | 34.23727 | -80.55937 | 20126 ft | 433 kts | 105° |
| 2026-04-15 22:18 | 34.22920 | -80.52436 | 20125 ft | 433 kts | 105° |
| 2026-04-15 22:18 | 34.22122 | -80.48931 | 20124 ft | 432 kts | 104° |
| 2026-04-15 22:19 | 34.21339 | -80.45423 | 20117 ft | 432 kts | 104° |
| 2026-04-15 22:19 | 34.20593 | -80.41906 | 20112 ft | 432 kts | 103° |
| 2026-04-15 22:19 | 34.19864 | -80.38384 | 20111 ft | 432 kts | 103° |
| 2026-04-15 22:19 | 34.19102 | -80.34875 | 20115 ft | 432 kts | 104° |
| 2026-04-15 22:20 | 34.18305 | -80.31379 | 20116 ft | 432 kts | 104° |
| 2026-04-15 22:20 | 34.17504 | -80.27886 | 20116 ft | 432 kts | 105° |
| 2026-04-15 22:20 | 34.16705 | -80.24390 | 20115 ft | 432 kts | 105° |
| 2026-04-15 22:20 | 34.15907 | -80.20898 | 20115 ft | 431 kts | 104° |
| 2026-04-15 22:21 | 34.15117 | -80.17456 | 20001 ft | 421 kts | 104° |
| 2026-04-15 22:21 | 34.14339 | -80.14067 | 19580 ft | 418 kts | 104° |
| 2026-04-15 22:21 | 34.13575 | -80.10725 | 19386 ft | 407 kts | 104° |
| 2026-04-15 22:21 | 34.12835 | -80.07497 | 19265 ft | 392 kts | 104° |
| 2026-04-15 22:22 | 34.12120 | -80.04381 | 18996 ft | 380 kts | 104° |
| 2026-04-15 22:22 | 34.11422 | -80.01349 | 18744 ft | 370 kts | 104° |
| 2026-04-15 22:22 | 34.10838 | -79.98808 | 18445 ft | 367 kts | 104° |
| 2026-04-15 22:22 | 34.10153 | -79.95856 | 18082 ft | 365 kts | 104° |
| 2026-04-15 22:23 | 34.09477 | -79.92917 | 17713 ft | 362 kts | 104° |
| 2026-04-15 22:23 | 34.08802 | -79.89994 | 17403 ft | 361 kts | 104° |
| 2026-04-15 22:23 | 34.08127 | -79.87086 | 17032 ft | 360 kts | 104° |
| 2026-04-15 22:23 | 34.07453 | -79.84174 | 16598 ft | 360 kts | 104° |
| 2026-04-15 22:24 | 34.06781 | -79.81276 | 16174 ft | 358 kts | 104° |
| 2026-04-15 22:24 | 34.06107 | -79.78387 | 15743 ft | 357 kts | 104° |
| 2026-04-15 22:24 | 34.05440 | -79.75515 | 15327 ft | 355 kts | 104° |
| 2026-04-15 22:24 | 34.04782 | -79.72691 | 14916 ft | 353 kts | 104° |
| 2026-04-15 22:25 | 34.04122 | -79.69855 | 14503 ft | 349 kts | 104° |
| 2026-04-15 22:25 | 34.03466 | -79.67057 | 14093 ft | 344 kts | 104° |
| 2026-04-15 22:25 | 34.02825 | -79.64302 | 13653 ft | 339 kts | 104° |
| 2026-04-15 22:25 | 34.02190 | -79.61590 | 13184 ft | 333 kts | 104° |
| 2026-04-15 22:26 | 34.01565 | -79.58923 | 12718 ft | 329 kts | 104° |
| 2026-04-15 22:26 | 34.00947 | -79.56289 | 12272 ft | 325 kts | 105° |
| 2026-04-15 22:26 | 34.00336 | -79.53688 | 11831 ft | 320 kts | 105° |
| 2026-04-15 22:26 | 33.99832 | -79.51538 | 11456 ft | 317 kts | 105° |
| 2026-04-15 22:27 | 33.99236 | -79.49007 | 11022 ft | 312 kts | 105° |
| 2026-04-15 22:27 | 33.98645 | -79.46506 | 10603 ft | 309 kts | 105° |
| 2026-04-15 22:27 | 33.98062 | -79.44032 | 10182 ft | 306 kts | 106° |
| 2026-04-15 22:27 | 33.97482 | -79.41583 | 9730 ft | 302 kts | 106° |
| 2026-04-15 22:28 | 33.96894 | -79.39164 | 9266 ft | 299 kts | 106° |
| 2026-04-15 22:28 | 33.96312 | -79.36770 | 8818 ft | 296 kts | 106° |
| 2026-04-15 22:28 | 33.95742 | -79.34397 | 8381 ft | 293 kts | 106° |
| 2026-04-15 22:28 | 33.95184 | -79.32052 | 8008 ft | 288 kts | 106° |
| 2026-04-15 22:29 | 33.94643 | -79.29754 | 7667 ft | 283 kts | 106° |
| 2026-04-15 22:29 | 33.94108 | -79.27502 | 7327 ft | 277 kts | 106° |
| 2026-04-15 22:29 | 33.93588 | -79.25288 | 6997 ft | 272 kts | 106° |
| 2026-04-15 22:29 | 33.93069 | -79.23118 | 6661 ft | 267 kts | 106° |
| 2026-04-15 22:30 | 33.92565 | -79.20986 | 6354 ft | 262 kts | 106° |
| 2026-04-15 22:30 | 33.92073 | -79.18898 | 6043 ft | 257 kts | 106° |
| 2026-04-15 22:30 | 33.91596 | -79.16847 | 5747 ft | 252 kts | 107° |
| 2026-04-15 22:30 | 33.91122 | -79.14840 | 5444 ft | 247 kts | 107° |
| 2026-04-15 22:31 | 33.90649 | -79.12875 | 5160 ft | 242 kts | 108° |
| 2026-04-15 22:31 | 33.90181 | -79.10945 | 4874 ft | 238 kts | 108° |
| 2026-04-15 22:31 | 33.89732 | -79.09040 | 4582 ft | 234 kts | 109° |
| 2026-04-15 22:31 | 33.89283 | -79.07169 | 4296 ft | 232 kts | 109° |
| 2026-04-15 22:32 | 33.88844 | -79.05340 | 4016 ft | 229 kts | 109° |
| 2026-04-15 22:32 | 33.88403 | -79.03509 | 3752 ft | 227 kts | 108° |
| 2026-04-15 22:32 | 33.87952 | -79.01702 | 3484 ft | 224 kts | 110° |
| 2026-04-15 22:32 | 33.87497 | -78.99922 | 3194 ft | 221 kts | 109° |
| 2026-04-15 22:33 | 33.87133 | -78.98440 | 2958 ft | 220 kts | 112° |
| 2026-04-15 22:33 | 33.86338 | -78.96939 | 2648 ft | 211 kts | 145° |
| 2026-04-15 22:33 | 33.85027 | -78.96335 | 2353 ft | 200 kts | 181° |
| 2026-04-15 22:33 | 33.83650 | -78.96379 | 2176 ft | 194 kts | 188° |
| 2026-04-15 22:34 | 33.82348 | -78.96510 | 2109 ft | 182 kts | 188° |
| 2026-04-15 22:34 | 33.81122 | -78.96567 | 2041 ft | 173 kts | 177° |
| 2026-04-15 22:34 | 33.79982 | -78.96220 | 1897 ft | 164 kts | 165° |
| 2026-04-15 22:34 | 33.78970 | -78.95705 | 1731 ft | 157 kts | 160° |
| 2026-04-15 22:35 | 33.77974 | -78.95214 | 1661 ft | 146 kts | 168° |
| 2026-04-15 22:35 | 33.77023 | -78.94974 | 1592 ft | 140 kts | 175° |
| 2026-04-15 22:35 | 33.76094 | -78.94818 | 1482 ft | 128 kts | 177° |
| 2026-04-15 22:35 | 33.75213 | -78.94644 | 1233 ft | 136 kts | 172° |
| 2026-04-15 22:36 | 33.74301 | -78.94405 | 1087 ft | 129 kts | 173° |
| 2026-04-15 22:36 | 33.73414 | -78.94197 | 894 ft | 132 kts | 173° |
| 2026-04-15 22:36 | 33.72531 | -78.93973 | 776 ft | 128 kts | 172° |
| 2026-04-15 22:36 | 33.71656 | -78.93758 | 577 ft | 127 kts | 171° |
| 2026-04-15 22:37 | 33.70803 | -78.93540 | 382 ft | 128 kts | 169° |
| 2026-04-15 22:37 | 33.69915 | -78.93318 | 206 ft | 129 kts | 169° |
| 2026-04-15 22:37 | 33.69045 | -78.93097 | 49 ft | 126 kts | 170° |
| 2026-04-15 22:37 | 33.68314 | -78.92918 | 29 ft | 83 kts | 168° |
| 2026-04-15 22:38 | 33.67901 | -78.92814 | 31 ft | 42 kts | 168° |
| 2026-04-15 22:38 | 33.67673 | -78.92745 | 30 ft | 28 kts | 156° |
| 2026-04-15 22:38 | 33.67546 | -78.92647 | 29 ft | 16 kts | 138° |
| 2026-04-15 22:38 | 33.67479 | -78.92565 | 30 ft | 11 kts | 111° |
| 2026-04-15 22:39 | 33.67511 | -78.92516 | 30 ft | 8 kts | 354° |
| 2026-04-15 22:39 | 33.67571 | -78.92530 | 30 ft | 9 kts | 348° |
| 2026-04-15 22:39 | 33.67637 | -78.92548 | 30 ft | 10 kts | 349° |
| 2026-04-15 22:39 | 33.67711 | -78.92564 | 30 ft | 11 kts | 350° |
| 2026-04-15 22:40 | 33.67789 | -78.92582 | 30 ft | 12 kts | 349° |
| 2026-04-15 22:40 | 33.67875 | -78.92602 | 30 ft | 13 kts | 349° |
| 2026-04-15 22:40 | 33.67967 | -78.92625 | 30 ft | 14 kts | 348° |
| 2026-04-15 22:41 | 33.68095 | -78.92594 | 30 ft | 8 kts | 78° |
| 2026-04-15 22:41 | 33.68109 | -78.92522 | 30 ft | 9 kts | 77° |
| 2026-04-15 22:41 | 33.68100 | -78.92488 | 30 ft | 4 kts | 141° |
| 2026-04-15 22:41 | 33.68076 | -78.92470 | 30 ft | 3 kts | 149° |
| 2026-04-15 22:42 | 33.68066 | -78.92463 | 30 ft | 0 kts | 150° |